sensor_id;sensor_type;location;lat;lon;timestamp;P1;durP1;ratioP1;P2;durP2;ratioP2
15155;SDS011;7678;50.058;8.306;2022-09-12T00:02:27;15.47;;;11.70;;
15155;SDS011;7678;50.058;8.306;2022-09-12T00:04:55;13.77;;;10.40;;
15155;SDS011;7678;50.058;8.306;2022-09-12T00:07:23;15.80;;;11.10;;
15155;SDS011;7678;50.058;8.306;2022-09-12T00:09:51;14.30;;;10.53;;
15155;SDS011;7678;50.058;8.306;2022-09-12T00:12:20;14.17;;;10.90;;
15155;SDS011;7678;50.058;8.306;2022-09-12T00:14:48;15.93;;;10.80;;
15155;SDS011;7678;50.058;8.306;2022-09-12T00:17:16;16.87;;;10.93;;
15155;SDS011;7678;50.058;8.306;2022-09-12T00:19:43;15.43;;;10.80;;
15155;SDS011;7678;50.058;8.306;2022-09-12T00:22:11;14.60;;;10.80;;
15155;SDS011;7678;50.058;8.306;2022-09-12T00:24:39;13.50;;;10.40;;
15155;SDS011;7678;50.058;8.306;2022-09-12T00:27:07;15.90;;;11.77;;
15155;SDS011;7678;50.058;8.306;2022-09-12T00:29:36;12.97;;;10.10;;
15155;SDS011;7678;50.058;8.306;2022-09-12T00:32:04;15.13;;;11.17;;
15155;SDS011;7678;50.058;8.306;2022-09-12T00:34:32;13.33;;;10.73;;
15155;SDS011;7678;50.058;8.306;2022-09-12T00:37:00;17.40;;;11.60;;
15155;SDS011;7678;50.058;8.306;2022-09-12T00:39:28;15.33;;;12.40;;
15155;SDS011;7678;50.058;8.306;2022-09-12T00:41:56;17.23;;;11.47;;
15155;SDS011;7678;50.058;8.306;2022-09-12T00:44:45;14.57;;;10.53;;
15155;SDS011;7678;50.058;8.306;2022-09-12T00:47:22;16.43;;;12.30;;
15155;SDS011;7678;50.058;8.306;2022-09-12T00:49:53;15.70;;;11.60;;
15155;SDS011;7678;50.058;8.306;2022-09-12T00:52:27;17.47;;;12.03;;
15155;SDS011;7678;50.058;8.306;2022-09-12T00:55:00;15.00;;;11.57;;
15155;SDS011;7678;50.058;8.306;2022-09-12T00:57:32;16.27;;;12.33;;
15155;SDS011;7678;50.058;8.306;2022-09-12T01:00:07;15.17;;;11.57;;
15155;SDS011;7678;50.058;8.306;2022-09-12T01:02:39;20.03;;;12.77;;
15155;SDS011;7678;50.058;8.306;2022-09-12T01:05:09;15.30;;;12.07;;
15155;SDS011;7678;50.058;8.306;2022-09-12T01:07:37;16.97;;;12.77;;
15155;SDS011;7678;50.058;8.306;2022-09-12T01:10:07;15.13;;;11.97;;
15155;SDS011;7678;50.058;8.306;2022-09-12T01:12:36;17.30;;;11.37;;
15155;SDS011;7678;50.058;8.306;2022-09-12T01:15:07;17.67;;;12.37;;
15155;SDS011;7678;50.058;8.306;2022-09-12T01:17:38;21.70;;;12.57;;
15155;SDS011;7678;50.058;8.306;2022-09-12T01:20:28;16.47;;;12.87;;
15155;SDS011;7678;50.058;8.306;2022-09-12T01:23:22;16.33;;;12.47;;
15155;SDS011;7678;50.058;8.306;2022-09-12T01:26:19;19.17;;;13.23;;
15155;SDS011;7678;50.058;8.306;2022-09-12T01:29:13;17.60;;;12.33;;
15155;SDS011;7678;50.058;8.306;2022-09-12T01:32:06;16.53;;;11.90;;
15155;SDS011;7678;50.058;8.306;2022-09-12T01:34:40;19.03;;;11.83;;
15155;SDS011;7678;50.058;8.306;2022-09-12T01:37:13;16.23;;;12.73;;
15155;SDS011;7678;50.058;8.306;2022-09-12T01:39:48;15.73;;;11.87;;
15155;SDS011;7678;50.058;8.306;2022-09-12T01:42:23;18.20;;;12.57;;
15155;SDS011;7678;50.058;8.306;2022-09-12T01:44:59;16.90;;;11.83;;
15155;SDS011;7678;50.058;8.306;2022-09-12T01:47:37;16.73;;;12.53;;
15155;SDS011;7678;50.058;8.306;2022-09-12T01:50:07;15.50;;;11.57;;
15155;SDS011;7678;50.058;8.306;2022-09-12T01:52:41;17.37;;;12.23;;
15155;SDS011;7678;50.058;8.306;2022-09-12T01:55:15;18.07;;;11.77;;
15155;SDS011;7678;50.058;8.306;2022-09-12T01:57:48;15.47;;;11.87;;
15155;SDS011;7678;50.058;8.306;2022-09-12T02:00:21;16.50;;;12.10;;
15155;SDS011;7678;50.058;8.306;2022-09-12T02:02:51;17.20;;;11.80;;
15155;SDS011;7678;50.058;8.306;2022-09-12T02:05:24;14.87;;;12.17;;
15155;SDS011;7678;50.058;8.306;2022-09-12T02:07:59;15.87;;;11.63;;
15155;SDS011;7678;50.058;8.306;2022-09-12T02:10:30;16.60;;;11.70;;
15155;SDS011;7678;50.058;8.306;2022-09-12T02:13:03;17.93;;;12.40;;
15155;SDS011;7678;50.058;8.306;2022-09-12T02:15:37;13.77;;;11.73;;
15155;SDS011;7678;50.058;8.306;2022-09-12T02:18:09;19.10;;;12.57;;
15155;SDS011;7678;50.058;8.306;2022-09-12T02:20:40;17.17;;;11.97;;
15155;SDS011;7678;50.058;8.306;2022-09-12T02:23:14;14.33;;;11.53;;
15155;SDS011;7678;50.058;8.306;2022-09-12T02:25:47;15.60;;;11.37;;
15155;SDS011;7678;50.058;8.306;2022-09-12T02:28:20;16.37;;;12.13;;
15155;SDS011;7678;50.058;8.306;2022-09-12T02:30:54;16.97;;;11.80;;
15155;SDS011;7678;50.058;8.306;2022-09-12T02:33:31;14.80;;;11.33;;
15155;SDS011;7678;50.058;8.306;2022-09-12T02:36:09;16.47;;;12.87;;
15155;SDS011;7678;50.058;8.306;2022-09-12T02:38:49;14.00;;;11.30;;
15155;SDS011;7678;50.058;8.306;2022-09-12T02:41:18;13.33;;;10.80;;
15155;SDS011;7678;50.058;8.306;2022-09-12T02:43:47;14.10;;;11.03;;
15155;SDS011;7678;50.058;8.306;2022-09-12T02:46:21;15.53;;;12.00;;
15155;SDS011;7678;50.058;8.306;2022-09-12T02:48:52;15.13;;;10.87;;
15155;SDS011;7678;50.058;8.306;2022-09-12T02:51:21;15.13;;;11.33;;
15155;SDS011;7678;50.058;8.306;2022-09-12T02:53:49;14.90;;;11.40;;
15155;SDS011;7678;50.058;8.306;2022-09-12T02:56:18;14.03;;;10.30;;
15155;SDS011;7678;50.058;8.306;2022-09-12T02:58:49;16.83;;;11.27;;
15155;SDS011;7678;50.058;8.306;2022-09-12T03:01:21;14.13;;;10.73;;
15155;SDS011;7678;50.058;8.306;2022-09-12T03:04:18;14.17;;;11.67;;
15155;SDS011;7678;50.058;8.306;2022-09-12T03:06:59;14.97;;;10.87;;
15155;SDS011;7678;50.058;8.306;2022-09-12T03:09:39;15.23;;;11.50;;
15155;SDS011;7678;50.058;8.306;2022-09-12T03:12:18;14.87;;;11.70;;
15155;SDS011;7678;50.058;8.306;2022-09-12T03:14:59;15.40;;;11.07;;
15155;SDS011;7678;50.058;8.306;2022-09-12T03:17:49;14.17;;;11.20;;
15155;SDS011;7678;50.058;8.306;2022-09-12T03:20:27;15.57;;;11.77;;
15155;SDS011;7678;50.058;8.306;2022-09-12T03:23:08;14.03;;;10.63;;
15155;SDS011;7678;50.058;8.306;2022-09-12T03:25:46;14.53;;;11.07;;
15155;SDS011;7678;50.058;8.306;2022-09-12T03:28:18;16.37;;;12.87;;
15155;SDS011;7678;50.058;8.306;2022-09-12T03:30:48;17.53;;;12.47;;
15155;SDS011;7678;50.058;8.306;2022-09-12T03:33:20;20.30;;;15.30;;
15155;SDS011;7678;50.058;8.306;2022-09-12T03:35:50;21.37;;;13.23;;
15155;SDS011;7678;50.058;8.306;2022-09-12T03:38:19;18.63;;;12.70;;
15155;SDS011;7678;50.058;8.306;2022-09-12T03:40:47;16.20;;;12.03;;
15155;SDS011;7678;50.058;8.306;2022-09-12T03:43:20;15.43;;;11.33;;
15155;SDS011;7678;50.058;8.306;2022-09-12T03:45:48;17.03;;;11.30;;
15155;SDS011;7678;50.058;8.306;2022-09-12T03:48:18;15.97;;;12.20;;
15155;SDS011;7678;50.058;8.306;2022-09-12T03:50:45;19.20;;;11.93;;
15155;SDS011;7678;50.058;8.306;2022-09-12T03:53:15;20.03;;;12.20;;
15155;SDS011;7678;50.058;8.306;2022-09-12T03:55:43;16.43;;;11.90;;
15155;SDS011;7678;50.058;8.306;2022-09-12T03:58:11;16.50;;;12.33;;
15155;SDS011;7678;50.058;8.306;2022-09-12T04:00:38;14.47;;;11.87;;
15155;SDS011;7678;50.058;8.306;2022-09-12T04:03:08;20.73;;;14.43;;
15155;SDS011;7678;50.058;8.306;2022-09-12T04:05:36;17.47;;;12.17;;
15155;SDS011;7678;50.058;8.306;2022-09-12T04:08:04;18.57;;;12.60;;
15155;SDS011;7678;50.058;8.306;2022-09-12T04:10:33;18.17;;;12.90;;
15155;SDS011;7678;50.058;8.306;2022-09-12T04:13:01;19.67;;;13.53;;
15155;SDS011;7678;50.058;8.306;2022-09-12T04:15:29;21.30;;;15.03;;
15155;SDS011;7678;50.058;8.306;2022-09-12T04:17:57;20.00;;;14.23;;
15155;SDS011;7678;50.058;8.306;2022-09-12T04:20:31;20.00;;;13.57;;
15155;SDS011;7678;50.058;8.306;2022-09-12T04:22:58;17.43;;;13.13;;
15155;SDS011;7678;50.058;8.306;2022-09-12T04:25:26;18.37;;;13.93;;
15155;SDS011;7678;50.058;8.306;2022-09-12T04:27:57;19.27;;;13.83;;
15155;SDS011;7678;50.058;8.306;2022-09-12T04:30:25;22.57;;;13.73;;
15155;SDS011;7678;50.058;8.306;2022-09-12T04:32:53;23.07;;;14.50;;
15155;SDS011;7678;50.058;8.306;2022-09-12T04:35:21;20.73;;;14.93;;
15155;SDS011;7678;50.058;8.306;2022-09-12T04:37:49;20.13;;;14.77;;
15155;SDS011;7678;50.058;8.306;2022-09-12T04:40:17;20.77;;;14.73;;
15155;SDS011;7678;50.058;8.306;2022-09-12T04:42:45;20.43;;;14.17;;
15155;SDS011;7678;50.058;8.306;2022-09-12T04:45:14;21.50;;;15.60;;
15155;SDS011;7678;50.058;8.306;2022-09-12T04:47:42;23.87;;;15.20;;
15155;SDS011;7678;50.058;8.306;2022-09-12T04:50:11;21.87;;;14.77;;
15155;SDS011;7678;50.058;8.306;2022-09-12T04:52:40;19.70;;;14.37;;
15155;SDS011;7678;50.058;8.306;2022-09-12T04:55:08;25.60;;;14.87;;
15155;SDS011;7678;50.058;8.306;2022-09-12T04:57:36;23.23;;;15.10;;
15155;SDS011;7678;50.058;8.306;2022-09-12T05:00:04;24.87;;;15.43;;
15155;SDS011;7678;50.058;8.306;2022-09-12T05:02:34;21.97;;;14.07;;
15155;SDS011;7678;50.058;8.306;2022-09-12T05:05:02;19.77;;;13.27;;
15155;SDS011;7678;50.058;8.306;2022-09-12T05:07:31;20.67;;;14.50;;
15155;SDS011;7678;50.058;8.306;2022-09-12T05:09:59;20.00;;;14.87;;
15155;SDS011;7678;50.058;8.306;2022-09-12T05:12:28;20.03;;;15.27;;
15155;SDS011;7678;50.058;8.306;2022-09-12T05:14:57;20.00;;;14.57;;
15155;SDS011;7678;50.058;8.306;2022-09-12T05:17:24;21.33;;;13.87;;
15155;SDS011;7678;50.058;8.306;2022-09-12T05:19:56;24.10;;;14.20;;
15155;SDS011;7678;50.058;8.306;2022-09-12T05:22:24;22.57;;;15.23;;
15155;SDS011;7678;50.058;8.306;2022-09-12T05:24:51;20.00;;;15.73;;
15155;SDS011;7678;50.058;8.306;2022-09-12T05:27:19;24.90;;;16.20;;
15155;SDS011;7678;50.058;8.306;2022-09-12T05:29:47;22.83;;;14.40;;
15155;SDS011;7678;50.058;8.306;2022-09-12T05:32:15;25.40;;;15.07;;
15155;SDS011;7678;50.058;8.306;2022-09-12T05:34:43;21.67;;;15.37;;
15155;SDS011;7678;50.058;8.306;2022-09-12T05:37:12;23.50;;;15.40;;
15155;SDS011;7678;50.058;8.306;2022-09-12T05:39:40;22.83;;;15.63;;
15155;SDS011;7678;50.058;8.306;2022-09-12T05:42:08;23.60;;;15.03;;
15155;SDS011;7678;50.058;8.306;2022-09-12T05:44:37;21.53;;;15.13;;
15155;SDS011;7678;50.058;8.306;2022-09-12T05:47:05;23.20;;;16.30;;
15155;SDS011;7678;50.058;8.306;2022-09-12T05:49:33;27.10;;;17.87;;
15155;SDS011;7678;50.058;8.306;2022-09-12T05:52:02;22.03;;;16.07;;
15155;SDS011;7678;50.058;8.306;2022-09-12T05:54:31;18.73;;;14.67;;
15155;SDS011;7678;50.058;8.306;2022-09-12T05:56:59;21.23;;;15.27;;
15155;SDS011;7678;50.058;8.306;2022-09-12T05:59:27;20.63;;;14.33;;
15155;SDS011;7678;50.058;8.306;2022-09-12T06:01:55;18.87;;;14.60;;
15155;SDS011;7678;50.058;8.306;2022-09-12T06:04:23;20.83;;;14.30;;
15155;SDS011;7678;50.058;8.306;2022-09-12T06:06:53;17.83;;;13.67;;
15155;SDS011;7678;50.058;8.306;2022-09-12T06:09:21;17.33;;;13.90;;
15155;SDS011;7678;50.058;8.306;2022-09-12T06:11:51;20.17;;;13.57;;
15155;SDS011;7678;50.058;8.306;2022-09-12T06:14:21;18.97;;;14.07;;
15155;SDS011;7678;50.058;8.306;2022-09-12T06:16:49;22.17;;;15.30;;
15155;SDS011;7678;50.058;8.306;2022-09-12T06:19:17;18.87;;;13.83;;
15155;SDS011;7678;50.058;8.306;2022-09-12T06:21:47;19.63;;;14.70;;
15155;SDS011;7678;50.058;8.306;2022-09-12T06:24:15;18.77;;;14.43;;
15155;SDS011;7678;50.058;8.306;2022-09-12T06:26:43;22.93;;;15.63;;
15155;SDS011;7678;50.058;8.306;2022-09-12T06:29:14;24.63;;;17.90;;
15155;SDS011;7678;50.058;8.306;2022-09-12T06:31:42;21.60;;;16.77;;
15155;SDS011;7678;50.058;8.306;2022-09-12T06:34:11;20.20;;;15.47;;
15155;SDS011;7678;50.058;8.306;2022-09-12T06:36:42;17.07;;;13.03;;
15155;SDS011;7678;50.058;8.306;2022-09-12T06:39:11;21.73;;;15.30;;
15155;SDS011;7678;50.058;8.306;2022-09-12T06:41:40;20.43;;;15.33;;
15155;SDS011;7678;50.058;8.306;2022-09-12T06:44:10;20.13;;;15.30;;
15155;SDS011;7678;50.058;8.306;2022-09-12T06:46:42;20.90;;;15.67;;
15155;SDS011;7678;50.058;8.306;2022-09-12T06:49:10;19.40;;;14.20;;
15155;SDS011;7678;50.058;8.306;2022-09-12T06:51:38;20.70;;;15.00;;
15155;SDS011;7678;50.058;8.306;2022-09-12T06:54:08;17.77;;;14.00;;
15155;SDS011;7678;50.058;8.306;2022-09-12T06:56:38;19.47;;;14.77;;
15155;SDS011;7678;50.058;8.306;2022-09-12T06:59:06;17.33;;;14.10;;
15155;SDS011;7678;50.058;8.306;2022-09-12T07:01:34;18.27;;;12.03;;
15155;SDS011;7678;50.058;8.306;2022-09-12T07:04:04;14.20;;;12.23;;
15155;SDS011;7678;50.058;8.306;2022-09-12T07:06:34;22.03;;;13.33;;
15155;SDS011;7678;50.058;8.306;2022-09-12T07:09:04;18.27;;;12.77;;
15155;SDS011;7678;50.058;8.306;2022-09-12T07:11:34;14.53;;;12.03;;
15155;SDS011;7678;50.058;8.306;2022-09-12T07:14:04;14.00;;;11.17;;
15155;SDS011;7678;50.058;8.306;2022-09-12T07:16:34;13.70;;;9.57;;
15155;SDS011;7678;50.058;8.306;2022-09-12T07:19:03;9.90;;;8.90;;
15155;SDS011;7678;50.058;8.306;2022-09-12T07:21:33;12.03;;;8.93;;
15155;SDS011;7678;50.058;8.306;2022-09-12T07:24:05;10.77;;;9.00;;
15155;SDS011;7678;50.058;8.306;2022-09-12T07:26:35;10.43;;;8.87;;
15155;SDS011;7678;50.058;8.306;2022-09-12T07:29:03;10.20;;;9.20;;
15155;SDS011;7678;50.058;8.306;2022-09-12T07:31:51;13.47;;;9.10;;
15155;SDS011;7678;50.058;8.306;2022-09-12T07:34:21;14.77;;;9.70;;
15155;SDS011;7678;50.058;8.306;2022-09-12T07:36:48;11.57;;;8.77;;
15155;SDS011;7678;50.058;8.306;2022-09-12T07:39:17;9.93;;;8.63;;
15155;SDS011;7678;50.058;8.306;2022-09-12T07:41:45;11.07;;;9.53;;
15155;SDS011;7678;50.058;8.306;2022-09-12T07:44:13;11.30;;;9.70;;
15155;SDS011;7678;50.058;8.306;2022-09-12T07:46:41;11.83;;;9.60;;
15155;SDS011;7678;50.058;8.306;2022-09-12T07:49:11;9.80;;;8.80;;
15155;SDS011;7678;50.058;8.306;2022-09-12T07:51:40;12.23;;;9.00;;
15155;SDS011;7678;50.058;8.306;2022-09-12T07:54:08;10.30;;;9.20;;
15155;SDS011;7678;50.058;8.306;2022-09-12T07:56:37;11.10;;;9.37;;
15155;SDS011;7678;50.058;8.306;2022-09-12T07:59:06;10.50;;;8.63;;
15155;SDS011;7678;50.058;8.306;2022-09-12T08:01:34;9.57;;;7.90;;
15155;SDS011;7678;50.058;8.306;2022-09-12T08:04:02;11.17;;;8.80;;
15155;SDS011;7678;50.058;8.306;2022-09-12T08:06:31;13.67;;;8.40;;
15155;SDS011;7678;50.058;8.306;2022-09-12T08:09:03;11.40;;;8.93;;
15155;SDS011;7678;50.058;8.306;2022-09-12T08:11:33;11.47;;;8.83;;
15155;SDS011;7678;50.058;8.306;2022-09-12T08:14:01;9.83;;;8.23;;
15155;SDS011;7678;50.058;8.306;2022-09-12T08:16:31;10.23;;;7.93;;
15155;SDS011;7678;50.058;8.306;2022-09-12T08:19:00;10.00;;;7.30;;
15155;SDS011;7678;50.058;8.306;2022-09-12T08:21:29;11.23;;;8.47;;
15155;SDS011;7678;50.058;8.306;2022-09-12T08:23:59;15.77;;;9.77;;
15155;SDS011;7678;50.058;8.306;2022-09-12T08:26:30;9.40;;;7.90;;
15155;SDS011;7678;50.058;8.306;2022-09-12T08:28:59;11.33;;;8.93;;
15155;SDS011;7678;50.058;8.306;2022-09-12T08:31:29;9.37;;;8.30;;
15155;SDS011;7678;50.058;8.306;2022-09-12T08:34:01;9.20;;;7.37;;
15155;SDS011;7678;50.058;8.306;2022-09-12T08:36:31;10.23;;;7.97;;
15155;SDS011;7678;50.058;8.306;2022-09-12T08:39:00;9.63;;;7.57;;
15155;SDS011;7678;50.058;8.306;2022-09-12T08:41:31;12.47;;;8.23;;
15155;SDS011;7678;50.058;8.306;2022-09-12T08:44:07;9.90;;;8.80;;
15155;SDS011;7678;50.058;8.306;2022-09-12T08:46:44;10.03;;;8.00;;
15155;SDS011;7678;50.058;8.306;2022-09-12T08:49:24;9.60;;;8.03;;
15155;SDS011;7678;50.058;8.306;2022-09-12T08:51:58;10.80;;;7.73;;
15155;SDS011;7678;50.058;8.306;2022-09-12T08:54:32;11.17;;;8.30;;
15155;SDS011;7678;50.058;8.306;2022-09-12T08:57:05;11.50;;;7.70;;
15155;SDS011;7678;50.058;8.306;2022-09-12T08:59:37;9.93;;;7.47;;
15155;SDS011;7678;50.058;8.306;2022-09-12T09:02:15;12.73;;;8.43;;
15155;SDS011;7678;50.058;8.306;2022-09-12T09:05:11;8.93;;;8.03;;
15155;SDS011;7678;50.058;8.306;2022-09-12T09:07:52;12.43;;;8.17;;
15155;SDS011;7678;50.058;8.306;2022-09-12T09:10:32;10.47;;;8.87;;
15155;SDS011;7678;50.058;8.306;2022-09-12T09:13:14;11.53;;;9.23;;
15155;SDS011;7678;50.058;8.306;2022-09-12T09:16:05;9.50;;;8.50;;
15155;SDS011;7678;50.058;8.306;2022-09-12T09:18:40;9.33;;;8.13;;
15155;SDS011;7678;50.058;8.306;2022-09-12T09:21:11;12.67;;;9.17;;
15155;SDS011;7678;50.058;8.306;2022-09-12T09:23:47;10.40;;;8.60;;
15155;SDS011;7678;50.058;8.306;2022-09-12T09:26:20;9.77;;;8.50;;
15155;SDS011;7678;50.058;8.306;2022-09-12T09:28:55;12.30;;;8.70;;
15155;SDS011;7678;50.058;8.306;2022-09-12T09:31:27;13.00;;;9.17;;
15155;SDS011;7678;50.058;8.306;2022-09-12T09:33:59;9.77;;;8.63;;
15155;SDS011;7678;50.058;8.306;2022-09-12T09:36:37;11.43;;;7.97;;
15155;SDS011;7678;50.058;8.306;2022-09-12T09:39:17;10.07;;;8.30;;
15155;SDS011;7678;50.058;8.306;2022-09-12T09:41:57;8.00;;;7.00;;
15155;SDS011;7678;50.058;8.306;2022-09-12T09:44:38;8.83;;;7.93;;
15155;SDS011;7678;50.058;8.306;2022-09-12T09:47:08;12.93;;;7.87;;
15155;SDS011;7678;50.058;8.306;2022-09-12T09:49:38;113.73;;;40.43;;
15155;SDS011;7678;50.058;8.306;2022-09-12T09:52:07;13.03;;;9.53;;
15155;SDS011;7678;50.058;8.306;2022-09-12T09:54:42;9.47;;;8.47;;
15155;SDS011;7678;50.058;8.306;2022-09-12T10:00:26;10.00;;;8.33;;
15155;SDS011;7678;50.058;8.306;2022-09-12T10:03:00;11.87;;;7.50;;
15155;SDS011;7678;50.058;8.306;2022-09-12T10:05:46;8.13;;;7.10;;
15155;SDS011;7678;50.058;8.306;2022-09-12T10:08:20;9.70;;;7.23;;
15155;SDS011;7678;50.058;8.306;2022-09-12T10:10:53;7.60;;;6.47;;
15155;SDS011;7678;50.058;8.306;2022-09-12T10:13:29;8.03;;;6.47;;
15155;SDS011;7678;50.058;8.306;2022-09-12T10:16:18;10.37;;;6.67;;
15155;SDS011;7678;50.058;8.306;2022-09-12T10:18:50;8.67;;;6.73;;
15155;SDS011;7678;50.058;8.306;2022-09-12T10:21:20;7.23;;;5.83;;
15155;SDS011;7678;50.058;8.306;2022-09-12T10:24:03;10.37;;;6.67;;
15155;SDS011;7678;50.058;8.306;2022-09-12T10:26:40;10.80;;;7.23;;
15155;SDS011;7678;50.058;8.306;2022-09-12T10:29:13;9.77;;;6.07;;
15155;SDS011;7678;50.058;8.306;2022-09-12T10:31:47;8.70;;;6.87;;
15155;SDS011;7678;50.058;8.306;2022-09-12T10:34:21;7.10;;;5.73;;
15155;SDS011;7678;50.058;8.306;2022-09-12T10:36:59;7.13;;;6.00;;
15155;SDS011;7678;50.058;8.306;2022-09-12T10:39:30;9.73;;;5.97;;
15155;SDS011;7678;50.058;8.306;2022-09-12T10:42:01;8.03;;;5.60;;
15155;SDS011;7678;50.058;8.306;2022-09-12T10:44:31;7.13;;;6.17;;
15155;SDS011;7678;50.058;8.306;2022-09-12T10:49:49;6.93;;;6.20;;
15155;SDS011;7678;50.058;8.306;2022-09-12T10:52:19;10.27;;;6.50;;
15155;SDS011;7678;50.058;8.306;2022-09-12T10:54:49;6.93;;;5.43;;
15155;SDS011;7678;50.058;8.306;2022-09-12T10:57:34;12.07;;;6.83;;
15155;SDS011;7678;50.058;8.306;2022-09-12T11:00:18;29.17;;;12.27;;
15155;SDS011;7678;50.058;8.306;2022-09-12T11:02:58;8.52;;;6.85;;
15155;SDS011;7678;50.058;8.306;2022-09-12T11:05:36;10.60;;;6.80;;
15155;SDS011;7678;50.058;8.306;2022-09-12T11:08:12;9.60;;;6.97;;
15155;SDS011;7678;50.058;8.306;2022-09-12T11:10:52;7.27;;;6.23;;
15155;SDS011;7678;50.058;8.306;2022-09-12T11:13:29;7.93;;;5.83;;
15155;SDS011;7678;50.058;8.306;2022-09-12T11:16:15;6.70;;;5.73;;
15155;SDS011;7678;50.058;8.306;2022-09-12T11:18:57;9.17;;;5.17;;
15155;SDS011;7678;50.058;8.306;2022-09-12T11:21:51;6.77;;;5.37;;
15155;SDS011;7678;50.058;8.306;2022-09-12T11:24:46;5.53;;;4.77;;
15155;SDS011;7678;50.058;8.306;2022-09-12T11:27:29;6.50;;;5.00;;
15155;SDS011;7678;50.058;8.306;2022-09-12T11:30:12;5.40;;;4.67;;
15155;SDS011;7678;50.058;8.306;2022-09-12T11:32:55;6.23;;;5.63;;
15155;SDS011;7678;50.058;8.306;2022-09-12T11:35:36;9.17;;;5.33;;
15155;SDS011;7678;50.058;8.306;2022-09-12T11:38:13;6.07;;;4.67;;
15155;SDS011;7678;50.058;8.306;2022-09-12T11:40:52;6.03;;;5.37;;
15155;SDS011;7678;50.058;8.306;2022-09-12T11:43:24;6.30;;;5.33;;
15155;SDS011;7678;50.058;8.306;2022-09-12T11:46:03;5.70;;;4.97;;
15155;SDS011;7678;50.058;8.306;2022-09-12T11:48:39;5.70;;;5.03;;
15155;SDS011;7678;50.058;8.306;2022-09-12T11:51:16;8.67;;;5.23;;
15155;SDS011;7678;50.058;8.306;2022-09-12T11:53:49;7.23;;;4.80;;
15155;SDS011;7678;50.058;8.306;2022-09-12T11:56:28;5.27;;;4.70;;
15155;SDS011;7678;50.058;8.306;2022-09-12T11:58:58;4.93;;;4.43;;
15155;SDS011;7678;50.058;8.306;2022-09-12T12:01:31;4.27;;;3.57;;
15155;SDS011;7678;50.058;8.306;2022-09-12T12:04:13;3.40;;;3.10;;
15155;SDS011;7678;50.058;8.306;2022-09-12T12:06:50;4.83;;;2.83;;
15155;SDS011;7678;50.058;8.306;2022-09-12T12:09:24;3.83;;;3.33;;
15155;SDS011;7678;50.058;8.306;2022-09-12T12:11:52;4.00;;;3.50;;
15155;SDS011;7678;50.058;8.306;2022-09-12T12:14:24;3.87;;;3.47;;
15155;SDS011;7678;50.058;8.306;2022-09-12T12:16:57;4.77;;;3.30;;
15155;SDS011;7678;50.058;8.306;2022-09-12T12:19:30;4.17;;;2.80;;
15155;SDS011;7678;50.058;8.306;2022-09-12T12:22:06;3.50;;;2.60;;
15155;SDS011;7678;50.058;8.306;2022-09-12T12:24:56;3.13;;;2.83;;
15155;SDS011;7678;50.058;8.306;2022-09-12T12:27:55;3.90;;;2.70;;
15155;SDS011;7678;50.058;8.306;2022-09-12T12:36:41;2.80;;;2.50;;
15155;SDS011;7678;50.058;8.306;2022-09-12T12:46:06;2.63;;;2.43;;
15155;SDS011;7678;50.058;8.306;2022-09-12T12:51:42;2.87;;;2.60;;
15155;SDS011;7678;50.058;8.306;2022-09-12T12:57:28;7.03;;;2.90;;
15155;SDS011;7678;50.058;8.306;2022-09-12T13:00:21;3.63;;;3.20;;
15155;SDS011;7678;50.058;8.306;2022-09-12T13:02:55;3.07;;;2.77;;
15155;SDS011;7678;50.058;8.306;2022-09-12T13:05:26;3.03;;;2.73;;
15155;SDS011;7678;50.058;8.306;2022-09-12T13:07:57;2.80;;;2.53;;
15155;SDS011;7678;50.058;8.306;2022-09-12T13:10:29;3.10;;;2.73;;
15155;SDS011;7678;50.058;8.306;2022-09-12T13:12:58;2.53;;;2.33;;
15155;SDS011;7678;50.058;8.306;2022-09-12T13:18:31;3.60;;;3.00;;
15155;SDS011;7678;50.058;8.306;2022-09-12T13:21:11;2.90;;;2.57;;
15155;SDS011;7678;50.058;8.306;2022-09-12T13:23:40;2.93;;;2.60;;
15155;SDS011;7678;50.058;8.306;2022-09-12T13:26:09;2.77;;;2.40;;
15155;SDS011;7678;50.058;8.306;2022-09-12T13:28:39;3.20;;;2.27;;
15155;SDS011;7678;50.058;8.306;2022-09-12T13:31:10;2.40;;;2.20;;
15155;SDS011;7678;50.058;8.306;2022-09-12T13:33:46;3.13;;;2.47;;
15155;SDS011;7678;50.058;8.306;2022-09-12T13:36:21;5.37;;;2.30;;
15155;SDS011;7678;50.058;8.306;2022-09-12T13:39:09;5.03;;;2.47;;
15155;SDS011;7678;50.058;8.306;2022-09-12T13:41:52;2.40;;;2.20;;
15155;SDS011;7678;50.058;8.306;2022-09-12T13:44:40;1.90;;;1.80;;
15155;SDS011;7678;50.058;8.306;2022-09-12T13:47:13;3.20;;;2.00;;
15155;SDS011;7678;50.058;8.306;2022-09-12T13:49:46;2.23;;;1.90;;
15155;SDS011;7678;50.058;8.306;2022-09-12T13:52:16;2.43;;;2.03;;
15155;SDS011;7678;50.058;8.306;2022-09-12T13:54:47;2.30;;;2.10;;
15155;SDS011;7678;50.058;8.306;2022-09-12T13:57:32;2.40;;;2.20;;
15155;SDS011;7678;50.058;8.306;2022-09-12T14:00:03;2.57;;;2.37;;
15155;SDS011;7678;50.058;8.306;2022-09-12T14:02:38;3.97;;;2.27;;
15155;SDS011;7678;50.058;8.306;2022-09-12T14:05:10;2.27;;;2.00;;
15155;SDS011;7678;50.058;8.306;2022-09-12T14:07:41;2.10;;;1.90;;
15155;SDS011;7678;50.058;8.306;2022-09-12T14:10:21;2.90;;;2.20;;
15155;SDS011;7678;50.058;8.306;2022-09-12T14:12:53;2.10;;;1.93;;
15155;SDS011;7678;50.058;8.306;2022-09-12T14:15:23;2.50;;;1.90;;
15155;SDS011;7678;50.058;8.306;2022-09-12T14:17:56;2.73;;;2.23;;
15155;SDS011;7678;50.058;8.306;2022-09-12T14:20:27;1.97;;;1.87;;
15155;SDS011;7678;50.058;8.306;2022-09-12T14:22:58;2.90;;;2.10;;
15155;SDS011;7678;50.058;8.306;2022-09-12T14:25:30;2.20;;;2.00;;
15155;SDS011;7678;50.058;8.306;2022-09-12T14:28:03;2.60;;;2.37;;
15155;SDS011;7678;50.058;8.306;2022-09-12T14:30:33;2.70;;;2.20;;
15155;SDS011;7678;50.058;8.306;2022-09-12T14:33:15;3.70;;;2.23;;
15155;SDS011;7678;50.058;8.306;2022-09-12T14:35:46;2.00;;;1.80;;
15155;SDS011;7678;50.058;8.306;2022-09-12T14:38:21;2.20;;;2.00;;
15155;SDS011;7678;50.058;8.306;2022-09-12T14:40:57;2.77;;;2.50;;
15155;SDS011;7678;50.058;8.306;2022-09-12T14:43:27;3.07;;;2.40;;
15155;SDS011;7678;50.058;8.306;2022-09-12T14:45:58;2.67;;;2.40;;
15155;SDS011;7678;50.058;8.306;2022-09-12T14:48:30;2.70;;;2.40;;
15155;SDS011;7678;50.058;8.306;2022-09-12T14:51:02;2.70;;;2.50;;
15155;SDS011;7678;50.058;8.306;2022-09-12T14:53:32;3.57;;;2.27;;
15155;SDS011;7678;50.058;8.306;2022-09-12T14:56:05;2.23;;;2.03;;
15155;SDS011;7678;50.058;8.306;2022-09-12T14:58:35;2.67;;;2.37;;
15155;SDS011;7678;50.058;8.306;2022-09-12T15:03:52;2.90;;;2.60;;
15155;SDS011;7678;50.058;8.306;2022-09-12T15:06:25;3.10;;;2.63;;
15155;SDS011;7678;50.058;8.306;2022-09-12T15:08:56;2.80;;;2.47;;
15155;SDS011;7678;50.058;8.306;2022-09-12T15:11:25;2.20;;;2.00;;
15155;SDS011;7678;50.058;8.306;2022-09-12T15:13:54;3.30;;;2.50;;
15155;SDS011;7678;50.058;8.306;2022-09-12T15:16:21;3.70;;;2.50;;
15155;SDS011;7678;50.058;8.306;2022-09-12T15:18:49;4.13;;;2.40;;
15155;SDS011;7678;50.058;8.306;2022-09-12T15:21:19;2.37;;;2.10;;
15155;SDS011;7678;50.058;8.306;2022-09-12T15:23:48;2.67;;;2.37;;
15155;SDS011;7678;50.058;8.306;2022-09-12T15:26:17;2.60;;;2.40;;
15155;SDS011;7678;50.058;8.306;2022-09-12T15:28:47;3.07;;;2.50;;
15155;SDS011;7678;50.058;8.306;2022-09-12T15:31:20;2.43;;;2.20;;
15155;SDS011;7678;50.058;8.306;2022-09-12T15:33:52;3.67;;;2.70;;
15155;SDS011;7678;50.058;8.306;2022-09-12T15:36:22;2.67;;;2.30;;
15155;SDS011;7678;50.058;8.306;2022-09-12T15:38:51;3.23;;;2.87;;
15155;SDS011;7678;50.058;8.306;2022-09-12T15:41:20;2.40;;;2.20;;
15155;SDS011;7678;50.058;8.306;2022-09-12T15:43:49;4.10;;;2.33;;
15155;SDS011;7678;50.058;8.306;2022-09-12T15:46:17;5.10;;;2.77;;
15155;SDS011;7678;50.058;8.306;2022-09-12T15:48:45;3.70;;;2.60;;
15155;SDS011;7678;50.058;8.306;2022-09-12T15:51:15;3.13;;;2.73;;